Harrisville, Michigan
Current Conditions -  °F | °C
As of 10:13 PM on Sunday 21 Dec 2014 (Local Time) from KOSC Reporting Station
Overcast Overcast  
Wind Chill: 25°   Ceiling: 4800
Heat Index: 32°   Visibility: 7mi
Dew Point: 27°   Wind: 8mph
Humidity: 82%   Direction: 160°SSE
Pressure: 30.18"   Gusts: NA
Location:  44.66°N, 83.29°W
Report Text: KOSC 220313Z AUTO 16007KT 7SM OVC048 00/M02 A3018 RMK AO2 T00001027
Loading
Personal Weather Stations






























Interactive Weather Map New forecast layout! Learn more

10-Day Weather Forecast

Advertisements
Track Severe Weather on mobile